CheckWX is a tool to help pilots better visualize weather data.  It is not intended as a substitute for an official pre-flight weather briefing.

18:01:07 UTC

PAVD TAF
Valdez Pioneer Field Airport
Valdez, Alaska, USA
PAVD 251736Z 2518/2618 VRB05KT P6SM BKN040 BKN100 FM252100 25007KT P6SM -SHRA SCT025 OVC050 FM260600 09004KT P6SM -RA BKN025 OVC050 FM261200 VRB05KT P6SM OVC050

Aug-25@
18:00 UTC

Aug-25 @ 18:00 UTC

Aug-25@
21:00 UTC

Aug-25 @ 21:00 UTC

PAVD 251736Z 2518/2618 VRB05KT P6SM BKN040 BKN100
Wind
  • Variable at 5 KTS
Cloud Levels
  • Broken at 4,000' AGL
  • Broken at 10,000' AGL

Aug-25@
21:00 UTC

Aug-25 @ 21:00 UTC

Aug-26@
06:00 UTC

Aug-26 @ 06:00 UTC

FM252100 25007KT P6SM -SHRA SCT025 OVC050

From

From Standard forecast or significant change

Wind
  • 250° at 7 KTS
Conditions
Light Rain
Cloud Levels
  • Scattered at 2,500' AGL
  • Overcast at 5,000' AGL

Aug-26@
06:00 UTC

Aug-26 @ 06:00 UTC

Aug-26@
12:00 UTC

Aug-26 @ 12:00 UTC

FM260600 09004KT P6SM -RA BKN025 OVC050

From

From Standard forecast or significant change

Wind
  • 090° at 4 KTS
Conditions
Light Rain
Cloud Levels
  • Broken at 2,500' AGL
  • Overcast at 5,000' AGL

Aug-26@
12:00 UTC

Aug-26 @ 12:00 UTC

Aug-26@
18:00 UTC

Aug-26 @ 18:00 UTC

FM261200 VRB05KT P6SM OVC050

From

From Standard forecast or significant change

Wind
  • Variable at 5 KTS
Cloud Levels
  • Overcast at 5,000' AGL